sensor_id;sensor_type;location;lat;lon;timestamp;temperature;humidity
18712;DHT22;9485;49.386;8.674;2024-01-30T00:03:33;7.00;94.90
18712;DHT22;9485;49.386;8.674;2024-01-30T00:08:54;6.90;94.80
18712;DHT22;9485;49.386;8.674;2024-01-30T00:14:15;6.90;94.70
18712;DHT22;9485;49.386;8.674;2024-01-30T00:19:36;6.90;94.80
18712;DHT22;9485;49.386;8.674;2024-01-30T00:24:58;6.80;94.70
18712;DHT22;9485;49.386;8.674;2024-01-30T00:30:19;6.80;94.70
18712;DHT22;9485;49.386;8.674;2024-01-30T00:35:40;6.80;94.80
18712;DHT22;9485;49.386;8.674;2024-01-30T00:41:03;6.70;94.80
18712;DHT22;9485;49.386;8.674;2024-01-30T00:46:23;6.70;94.70
18712;DHT22;9485;49.386;8.674;2024-01-30T00:51:44;6.70;94.80
18712;DHT22;9485;49.386;8.674;2024-01-30T00:57:06;6.60;94.50
18712;DHT22;9485;49.386;8.674;2024-01-30T01:02:26;6.50;94.40
18712;DHT22;9485;49.386;8.674;2024-01-30T01:07:47;6.50;94.60
18712;DHT22;9485;49.386;8.674;2024-01-30T01:13:09;6.40;94.60
18712;DHT22;9485;49.386;8.674;2024-01-30T01:18:29;6.40;94.70
18712;DHT22;9485;49.386;8.674;2024-01-30T01:23:50;6.40;94.90
18712;DHT22;9485;49.386;8.674;2024-01-30T01:29:12;6.40;94.90
18712;DHT22;9485;49.386;8.674;2024-01-30T01:34:32;6.40;94.90
18712;DHT22;9485;49.386;8.674;2024-01-30T01:39:53;6.40;95.00
18712;DHT22;9485;49.386;8.674;2024-01-30T01:45:15;6.40;95.00
18712;DHT22;9485;49.386;8.674;2024-01-30T01:50:36;6.30;94.90
18712;DHT22;9485;49.386;8.674;2024-01-30T01:55:57;6.30;94.90
18712;DHT22;9485;49.386;8.674;2024-01-30T02:01:20;6.30;95.00
18712;DHT22;9485;49.386;8.674;2024-01-30T02:06:41;6.30;95.00
18712;DHT22;9485;49.386;8.674;2024-01-30T02:12:04;6.30;95.10
18712;DHT22;9485;49.386;8.674;2024-01-30T02:17:26;6.30;95.10
18712;DHT22;9485;49.386;8.674;2024-01-30T02:22:48;6.30;95.10
18712;DHT22;9485;49.386;8.674;2024-01-30T02:28:09;6.30;95.20
18712;DHT22;9485;49.386;8.674;2024-01-30T02:33:30;6.30;95.30
18712;DHT22;9485;49.386;8.674;2024-01-30T02:38:52;6.30;95.20
18712;DHT22;9485;49.386;8.674;2024-01-30T02:44:13;6.20;95.40
18712;DHT22;9485;49.386;8.674;2024-01-30T02:49:34;6.20;95.00
18712;DHT22;9485;49.386;8.674;2024-01-30T02:54:56;6.20;95.10
18712;DHT22;9485;49.386;8.674;2024-01-30T03:00:17;6.20;95.20
18712;DHT22;9485;49.386;8.674;2024-01-30T03:05:38;6.20;95.20
18712;DHT22;9485;49.386;8.674;2024-01-30T03:11:00;6.20;95.20
18712;DHT22;9485;49.386;8.674;2024-01-30T03:16:21;6.20;95.20
18712;DHT22;9485;49.386;8.674;2024-01-30T03:21:41;6.10;95.20
18712;DHT22;9485;49.386;8.674;2024-01-30T03:27:03;6.10;95.20
18712;DHT22;9485;49.386;8.674;2024-01-30T03:32:24;6.10;95.50
18712;DHT22;9485;49.386;8.674;2024-01-30T03:37:45;6.10;95.20
18712;DHT22;9485;49.386;8.674;2024-01-30T03:43:07;6.10;95.20
18712;DHT22;9485;49.386;8.674;2024-01-30T03:48:28;6.10;95.20
18712;DHT22;9485;49.386;8.674;2024-01-30T03:53:50;6.10;95.30
18712;DHT22;9485;49.386;8.674;2024-01-30T03:59:12;6.00;95.30
18712;DHT22;9485;49.386;8.674;2024-01-30T04:04:32;6.00;95.20
18712;DHT22;9485;49.386;8.674;2024-01-30T04:09:52;6.00;95.30
18712;DHT22;9485;49.386;8.674;2024-01-30T04:15:14;6.00;95.30
18712;DHT22;9485;49.386;8.674;2024-01-30T04:20:35;6.00;95.30
18712;DHT22;9485;49.386;8.674;2024-01-30T04:25:56;6.00;95.50
18712;DHT22;9485;49.386;8.674;2024-01-30T04:31:18;6.00;95.70
18712;DHT22;9485;49.386;8.674;2024-01-30T04:36:39;6.00;95.80
18712;DHT22;9485;49.386;8.674;2024-01-30T04:41:59;6.10;96.20
18712;DHT22;9485;49.386;8.674;2024-01-30T04:47:21;6.10;96.40
18712;DHT22;9485;49.386;8.674;2024-01-30T04:52:42;6.20;96.50
18712;DHT22;9485;49.386;8.674;2024-01-30T04:58:03;6.30;96.70
18712;DHT22;9485;49.386;8.674;2024-01-30T05:03:25;6.40;96.80
18712;DHT22;9485;49.386;8.674;2024-01-30T05:08:45;6.50;96.80
18712;DHT22;9485;49.386;8.674;2024-01-30T05:14:06;6.50;96.90
18712;DHT22;9485;49.386;8.674;2024-01-30T05:19:28;6.60;96.80
18712;DHT22;9485;49.386;8.674;2024-01-30T05:24:49;6.60;97.20
18712;DHT22;9485;49.386;8.674;2024-01-30T05:30:10;6.80;97.90
18712;DHT22;9485;49.386;8.674;2024-01-30T05:35:33;6.90;97.90
18712;DHT22;9485;49.386;8.674;2024-01-30T05:40:53;7.00;97.60
18712;DHT22;9485;49.386;8.674;2024-01-30T05:46:14;7.10;97.30
18712;DHT22;9485;49.386;8.674;2024-01-30T05:51:36;7.10;96.90
18712;DHT22;9485;49.386;8.674;2024-01-30T05:56:56;7.10;96.50
18712;DHT22;9485;49.386;8.674;2024-01-30T06:02:17;7.10;96.40
18712;DHT22;9485;49.386;8.674;2024-01-30T06:07:39;7.00;96.20
18712;DHT22;9485;49.386;8.674;2024-01-30T06:13:00;7.00;96.10
18712;DHT22;9485;49.386;8.674;2024-01-30T06:18:21;7.00;96.10
18712;DHT22;9485;49.386;8.674;2024-01-30T06:23:43;6.90;96.20
18712;DHT22;9485;49.386;8.674;2024-01-30T06:29:03;6.90;96.60
18712;DHT22;9485;49.386;8.674;2024-01-30T06:34:24;7.00;97.00
18712;DHT22;9485;49.386;8.674;2024-01-30T06:39:47;7.10;97.30
18712;DHT22;9485;49.386;8.674;2024-01-30T06:45:08;7.20;98.00
18712;DHT22;9485;49.386;8.674;2024-01-30T06:50:29;7.40;98.70
18712;DHT22;9485;49.386;8.674;2024-01-30T06:55:51;7.60;99.10
18712;DHT22;9485;49.386;8.674;2024-01-30T07:01:12;7.80;99.00
18712;DHT22;9485;49.386;8.674;2024-01-30T07:06:33;8.00;99.00
18712;DHT22;9485;49.386;8.674;2024-01-30T07:11:55;8.20;99.20
18712;DHT22;9485;49.386;8.674;2024-01-30T07:17:17;8.40;99.30
18712;DHT22;9485;49.386;8.674;2024-01-30T07:22:38;8.70;99.60
18712;DHT22;9485;49.386;8.674;2024-01-30T07:28:02;8.90;99.80
18712;DHT22;9485;49.386;8.674;2024-01-30T07:33:22;9.10;99.70
18712;DHT22;9485;49.386;8.674;2024-01-30T07:38:43;9.30;99.70
18712;DHT22;9485;49.386;8.674;2024-01-30T07:44:05;9.50;99.60
18712;DHT22;9485;49.386;8.674;2024-01-30T07:49:25;9.70;99.20
18712;DHT22;9485;49.386;8.674;2024-01-30T07:54:45;9.80;99.20
18712;DHT22;9485;49.386;8.674;2024-01-30T08:00:08;10.00;99.20
18712;DHT22;9485;49.386;8.674;2024-01-30T08:05:29;10.10;98.60
18712;DHT22;9485;49.386;8.674;2024-01-30T08:10:50;10.20;98.80
18712;DHT22;9485;49.386;8.674;2024-01-30T08:16:11;10.40;98.80
18712;DHT22;9485;49.386;8.674;2024-01-30T08:21:32;10.50;98.60
18712;DHT22;9485;49.386;8.674;2024-01-30T08:26:55;10.70;98.90
18712;DHT22;9485;49.386;8.674;2024-01-30T08:32:18;10.80;99.00
18712;DHT22;9485;49.386;8.674;2024-01-30T08:37:39;11.00;98.90
18712;DHT22;9485;49.386;8.674;2024-01-30T08:42:59;11.20;99.20
18712;DHT22;9485;49.386;8.674;2024-01-30T08:48:21;11.40;99.40
18712;DHT22;9485;49.386;8.674;2024-01-30T08:53:42;11.60;99.20
18712;DHT22;9485;49.386;8.674;2024-01-30T08:59:02;11.80;99.10
18712;DHT22;9485;49.386;8.674;2024-01-30T09:04:25;11.90;98.80
18712;DHT22;9485;49.386;8.674;2024-01-30T09:09:45;12.10;98.40
18712;DHT22;9485;49.386;8.674;2024-01-30T09:15:06;12.20;98.60
18712;DHT22;9485;49.386;8.674;2024-01-30T09:20:29;12.30;98.30
18712;DHT22;9485;49.386;8.674;2024-01-30T09:25:49;12.40;97.60
18712;DHT22;9485;49.386;8.674;2024-01-30T09:31:10;12.50;97.60
18712;DHT22;9485;49.386;8.674;2024-01-30T09:36:33;12.40;97.30
18712;DHT22;9485;49.386;8.674;2024-01-30T09:42:00;12.40;96.70
18712;DHT22;9485;49.386;8.674;2024-01-30T09:47:25;12.40;96.30
18712;DHT22;9485;49.386;8.674;2024-01-30T09:52:48;12.40;96.90
18712;DHT22;9485;49.386;8.674;2024-01-30T09:58:11;12.40;96.70
18712;DHT22;9485;49.386;8.674;2024-01-30T10:03:32;12.40;97.20
18712;DHT22;9485;49.386;8.674;2024-01-30T10:08:54;12.40;97.30
18712;DHT22;9485;49.386;8.674;2024-01-30T10:14:15;12.50;97.20
18712;DHT22;9485;49.386;8.674;2024-01-30T10:19:36;12.50;97.20
18712;DHT22;9485;49.386;8.674;2024-01-30T10:24:59;12.60;97.60
18712;DHT22;9485;49.386;8.674;2024-01-30T10:30:20;12.70;97.50
18712;DHT22;9485;49.386;8.674;2024-01-30T10:35:41;12.80;97.70
18712;DHT22;9485;49.386;8.674;2024-01-30T10:41:04;12.90;97.50
18712;DHT22;9485;49.386;8.674;2024-01-30T10:46:31;13.00;97.40
18712;DHT22;9485;49.386;8.674;2024-01-30T10:51:53;13.20;97.80
18712;DHT22;9485;49.386;8.674;2024-01-30T10:57:17;13.40;98.30
18712;DHT22;9485;49.386;8.674;2024-01-30T11:02:39;13.50;97.20
18712;DHT22;9485;49.386;8.674;2024-01-30T11:08:11;13.60;97.20
18712;DHT22;9485;49.386;8.674;2024-01-30T11:13:34;13.70;96.00
18712;DHT22;9485;49.386;8.674;2024-01-30T11:19:00;13.70;96.30
18712;DHT22;9485;49.386;8.674;2024-01-30T11:24:22;13.70;95.80
18712;DHT22;9485;49.386;8.674;2024-01-30T11:29:50;13.70;96.30
18712;DHT22;9485;49.386;8.674;2024-01-30T11:35:11;13.80;95.80
18712;DHT22;9485;49.386;8.674;2024-01-30T11:40:33;13.80;96.50
18712;DHT22;9485;49.386;8.674;2024-01-30T11:45:55;13.90;96.40
18712;DHT22;9485;49.386;8.674;2024-01-30T11:51:16;13.90;96.20
18712;DHT22;9485;49.386;8.674;2024-01-30T11:56:38;13.90;96.50
18712;DHT22;9485;49.386;8.674;2024-01-30T12:02:00;13.90;96.40
18712;DHT22;9485;49.386;8.674;2024-01-30T12:07:21;14.00;95.80
18712;DHT22;9485;49.386;8.674;2024-01-30T12:12:43;14.00;96.20
18712;DHT22;9485;49.386;8.674;2024-01-30T12:18:07;14.00;96.00
18712;DHT22;9485;49.386;8.674;2024-01-30T12:23:29;14.00;95.90
18712;DHT22;9485;49.386;8.674;2024-01-30T12:28:50;14.00;96.10
18712;DHT22;9485;49.386;8.674;2024-01-30T12:34:15;14.00;95.90
18712;DHT22;9485;49.386;8.674;2024-01-30T12:39:35;14.00;95.50
18712;DHT22;9485;49.386;8.674;2024-01-30T12:44:57;14.00;96.30
18712;DHT22;9485;49.386;8.674;2024-01-30T12:50:19;14.00;96.50
18712;DHT22;9485;49.386;8.674;2024-01-30T12:55:40;14.10;96.90
18712;DHT22;9485;49.386;8.674;2024-01-30T13:01:01;14.30;97.60
18712;DHT22;9485;49.386;8.674;2024-01-30T13:06:23;14.60;97.30
18712;DHT22;9485;49.386;8.674;2024-01-30T13:11:44;14.70;96.80
18712;DHT22;9485;49.386;8.674;2024-01-30T13:17:04;14.80;97.00
18712;DHT22;9485;49.386;8.674;2024-01-30T13:22:26;14.90;96.80
18712;DHT22;9485;49.386;8.674;2024-01-30T13:27:47;14.90;96.40
18712;DHT22;9485;49.386;8.674;2024-01-30T13:33:08;15.00;96.70
18712;DHT22;9485;49.386;8.674;2024-01-30T13:38:30;15.00;96.90
18712;DHT22;9485;49.386;8.674;2024-01-30T13:43:50;15.10;96.70
18712;DHT22;9485;49.386;8.674;2024-01-30T13:49:11;15.30;96.80
18712;DHT22;9485;49.386;8.674;2024-01-30T13:54:33;15.30;96.60
18712;DHT22;9485;49.386;8.674;2024-01-30T13:59:53;15.30;96.00
18712;DHT22;9485;49.386;8.674;2024-01-30T14:05:14;15.30;96.30
18712;DHT22;9485;49.386;8.674;2024-01-30T14:10:36;15.30;96.20
18712;DHT22;9485;49.386;8.674;2024-01-30T14:15:56;15.30;95.80
18712;DHT22;9485;49.386;8.674;2024-01-30T14:21:18;15.30;96.10
18712;DHT22;9485;49.386;8.674;2024-01-30T14:26:40;15.30;96.10
18712;DHT22;9485;49.386;8.674;2024-01-30T14:32:00;15.30;95.70
18712;DHT22;9485;49.386;8.674;2024-01-30T14:37:23;15.30;96.10
18712;DHT22;9485;49.386;8.674;2024-01-30T14:42:45;15.30;96.10
18712;DHT22;9485;49.386;8.674;2024-01-30T14:48:07;15.20;95.70
18712;DHT22;9485;49.386;8.674;2024-01-30T14:53:28;15.30;96.30
18712;DHT22;9485;49.386;8.674;2024-01-30T14:58:50;15.20;95.80
18712;DHT22;9485;49.386;8.674;2024-01-30T15:04:11;15.20;96.00
18712;DHT22;9485;49.386;8.674;2024-01-30T15:09:32;15.20;96.00
18712;DHT22;9485;49.386;8.674;2024-01-30T15:14:53;15.10;96.00
18712;DHT22;9485;49.386;8.674;2024-01-30T15:20:14;15.10;95.70
18712;DHT22;9485;49.386;8.674;2024-01-30T15:25:37;15.10;96.00
18712;DHT22;9485;49.386;8.674;2024-01-30T15:30:58;15.10;96.00
18712;DHT22;9485;49.386;8.674;2024-01-30T15:36:19;15.10;96.00
18712;DHT22;9485;49.386;8.674;2024-01-30T15:41:40;15.00;96.10
18712;DHT22;9485;49.386;8.674;2024-01-30T15:47:02;15.00;96.10
18712;DHT22;9485;49.386;8.674;2024-01-30T15:52:23;15.00;95.70
18712;DHT22;9485;49.386;8.674;2024-01-30T15:57:43;15.00;96.00
18712;DHT22;9485;49.386;8.674;2024-01-30T16:03:05;14.90;96.00
18712;DHT22;9485;49.386;8.674;2024-01-30T16:08:26;14.90;95.80
18712;DHT22;9485;49.386;8.674;2024-01-30T16:13:50;14.90;96.20
18712;DHT22;9485;49.386;8.674;2024-01-30T16:19:13;14.90;95.70
18712;DHT22;9485;49.386;8.674;2024-01-30T16:24:33;14.90;95.90
18712;DHT22;9485;49.386;8.674;2024-01-30T16:29:54;14.80;96.20
18712;DHT22;9485;49.386;8.674;2024-01-30T16:35:16;14.80;96.20
18712;DHT22;9485;49.386;8.674;2024-01-30T16:40:37;14.80;95.90
18712;DHT22;9485;49.386;8.674;2024-01-30T16:45:58;14.80;96.10
18712;DHT22;9485;49.386;8.674;2024-01-30T16:51:20;14.80;96.20
18712;DHT22;9485;49.386;8.674;2024-01-30T16:56:41;14.80;95.80
18712;DHT22;9485;49.386;8.674;2024-01-30T17:02:07;14.80;96.10
18712;DHT22;9485;49.386;8.674;2024-01-30T17:07:29;14.70;96.10
18712;DHT22;9485;49.386;8.674;2024-01-30T17:12:54;14.70;95.70
18712;DHT22;9485;49.386;8.674;2024-01-30T17:18:15;14.70;96.00
18712;DHT22;9485;49.386;8.674;2024-01-30T17:23:36;14.70;96.00
18712;DHT22;9485;49.386;8.674;2024-01-30T17:28:59;14.70;95.70
18712;DHT22;9485;49.386;8.674;2024-01-30T17:34:19;14.60;96.10
18712;DHT22;9485;49.386;8.674;2024-01-30T17:39:44;14.60;96.10
18712;DHT22;9485;49.386;8.674;2024-01-30T17:45:05;14.60;95.90
18712;DHT22;9485;49.386;8.674;2024-01-30T17:50:26;14.60;95.90
18712;DHT22;9485;49.386;8.674;2024-01-30T17:55:48;14.50;95.20
18712;DHT22;9485;49.386;8.674;2024-01-30T18:01:09;14.30;94.50
18712;DHT22;9485;49.386;8.674;2024-01-30T18:06:30;14.10;94.60
18712;DHT22;9485;49.386;8.674;2024-01-30T18:11:52;13.80;94.80
18712;DHT22;9485;49.386;8.674;2024-01-30T18:17:12;13.60;95.00
18712;DHT22;9485;49.386;8.674;2024-01-30T18:22:33;13.40;95.60
18712;DHT22;9485;49.386;8.674;2024-01-30T18:27:55;13.20;96.00
18712;DHT22;9485;49.386;8.674;2024-01-30T18:33:16;13.10;96.70
18712;DHT22;9485;49.386;8.674;2024-01-30T18:38:37;13.10;96.80
18712;DHT22;9485;49.386;8.674;2024-01-30T18:43:59;13.00;97.20
18712;DHT22;9485;49.386;8.674;2024-01-30T18:49:21;13.00;97.40
18712;DHT22;9485;49.386;8.674;2024-01-30T18:54:42;13.00;97.80
18712;DHT22;9485;49.386;8.674;2024-01-30T19:00:05;13.00;98.10
18712;DHT22;9485;49.386;8.674;2024-01-30T19:05:27;13.10;98.10
18712;DHT22;9485;49.386;8.674;2024-01-30T19:10:48;13.10;98.20
18712;DHT22;9485;49.386;8.674;2024-01-30T19:16:10;13.10;98.10
18712;DHT22;9485;49.386;8.674;2024-01-30T19:21:31;13.10;97.90
18712;DHT22;9485;49.386;8.674;2024-01-30T19:26:52;13.10;98.00
18712;DHT22;9485;49.386;8.674;2024-01-30T19:32:14;13.10;97.90
18712;DHT22;9485;49.386;8.674;2024-01-30T19:37:34;13.00;97.70
18712;DHT22;9485;49.386;8.674;2024-01-30T19:42:56;13.00;97.80
18712;DHT22;9485;49.386;8.674;2024-01-30T19:48:18;13.00;97.80
18712;DHT22;9485;49.386;8.674;2024-01-30T19:53:40;13.00;97.80
18712;DHT22;9485;49.386;8.674;2024-01-30T19:59:00;13.00;97.90
18712;DHT22;9485;49.386;8.674;2024-01-30T20:04:22;12.90;98.00
18712;DHT22;9485;49.386;8.674;2024-01-30T20:09:43;12.90;97.90
18712;DHT22;9485;49.386;8.674;2024-01-30T20:15:05;12.90;98.10
18712;DHT22;9485;49.386;8.674;2024-01-30T20:20:29;12.90;98.10
18712;DHT22;9485;49.386;8.674;2024-01-30T20:25:50;12.90;98.10
18712;DHT22;9485;49.386;8.674;2024-01-30T20:31:11;12.90;98.20
18712;DHT22;9485;49.386;8.674;2024-01-30T20:36:34;12.90;98.30
18712;DHT22;9485;49.386;8.674;2024-01-30T20:41:54;12.80;98.10
18712;DHT22;9485;49.386;8.674;2024-01-30T20:47:15;12.80;98.30
18712;DHT22;9485;49.386;8.674;2024-01-30T20:52:37;12.80;98.30
18712;DHT22;9485;49.386;8.674;2024-01-30T20:57:57;12.80;98.20
18712;DHT22;9485;49.386;8.674;2024-01-30T21:03:18;12.80;98.30
18712;DHT22;9485;49.386;8.674;2024-01-30T21:08:41;12.80;98.30
18712;DHT22;9485;49.386;8.674;2024-01-30T21:14:01;12.80;98.30
18712;DHT22;9485;49.386;8.674;2024-01-30T21:19:24;12.70;98.40
18712;DHT22;9485;49.386;8.674;2024-01-30T21:24:46;12.70;98.40
18712;DHT22;9485;49.386;8.674;2024-01-30T21:30:07;12.70;98.50
18712;DHT22;9485;49.386;8.674;2024-01-30T21:35:28;12.70;98.50
18712;DHT22;9485;49.386;8.674;2024-01-30T21:40:50;12.80;98.60
18712;DHT22;9485;49.386;8.674;2024-01-30T21:46:11;12.80;98.50
18712;DHT22;9485;49.386;8.674;2024-01-30T21:51:31;12.80;98.70
18712;DHT22;9485;49.386;8.674;2024-01-30T21:56:53;12.80;98.80
18712;DHT22;9485;49.386;8.674;2024-01-30T22:02:14;12.80;98.80
18712;DHT22;9485;49.386;8.674;2024-01-30T22:07:34;12.80;98.90
18712;DHT22;9485;49.386;8.674;2024-01-30T22:12:56;12.80;99.00
18712;DHT22;9485;49.386;8.674;2024-01-30T22:18:17;12.90;99.00
18712;DHT22;9485;49.386;8.674;2024-01-30T22:23:37;12.90;99.10
18712;DHT22;9485;49.386;8.674;2024-01-30T22:28:59;12.90;99.10
18712;DHT22;9485;49.386;8.674;2024-01-30T22:34:20;12.90;99.10
18712;DHT22;9485;49.386;8.674;2024-01-30T22:39:40;12.90;99.30
18712;DHT22;9485;49.386;8.674;2024-01-30T22:45:03;13.00;99.40
18712;DHT22;9485;49.386;8.674;2024-01-30T22:50:24;13.00;99.40
18712;DHT22;9485;49.386;8.674;2024-01-30T22:55:44;13.00;99.50
18712;DHT22;9485;49.386;8.674;2024-01-30T23:01:07;13.10;99.50
18712;DHT22;9485;49.386;8.674;2024-01-30T23:06:28;13.10;99.40
18712;DHT22;9485;49.386;8.674;2024-01-30T23:11:48;13.10;99.50
18712;DHT22;9485;49.386;8.674;2024-01-30T23:17:11;13.10;99.50
18712;DHT22;9485;49.386;8.674;2024-01-30T23:22:32;13.20;99.40
18712;DHT22;9485;49.386;8.674;2024-01-30T23:27:53;13.20;99.40
18712;DHT22;9485;49.386;8.674;2024-01-30T23:33:15;13.20;99.50
18712;DHT22;9485;49.386;8.674;2024-01-30T23:38:36;13.30;99.40
18712;DHT22;9485;49.386;8.674;2024-01-30T23:43:56;13.30;99.50
18712;DHT22;9485;49.386;8.674;2024-01-30T23:49:18;13.30;99.40
18712;DHT22;9485;49.386;8.674;2024-01-30T23:54:39;13.30;99.30
